Time;durP1;ratioP1;P1;durP2;ratioP2;P2;SDS_P1;SDS_P2;PMS_P1;PMS_P2;Temp;Humidity;BMP_temperature;BMP_pressure;BME280_temperature;BME280_humidity;BME280_pressure;Samples;Min_cycle;Max_cycle;Signal;HPM_P1;HPM_P2
2022/10/15 00:00:43;;;;;;;;;;;;;;;20.44;41.06;99315.59;4514809;31;33997;-85
2022/10/15 00:03:10;;;;;;;;;;;;;;;20.44;40.93;99315.59;4514886;31;33395;-85
2022/10/15 00:05:38;;;;;;;;;;;;;;;20.38;41.12;99318.34;4515441;31;34242;-85
2022/10/15 00:08:05;;;;;;;;;;;;;;;20.21;41.54;99315.28;4502554;31;34362;-84
2022/10/15 00:10:33;;;;;;;;;;;;;;;20.14;41.63;99322.44;4514885;31;34582;-88
2022/10/15 00:13:00;;;;;;;;;;;;;;;20.30;41.32;99313.28;4514980;31;34335;-85
2022/10/15 00:15:34;;;;;;;;;;;;;;;20.10;41.58;99321.66;4515154;31;33334;-85
2022/10/15 00:18:01;;;;;;;;;;;;;;;20.31;41.12;99308.91;4513312;31;34380;-84
2022/10/15 00:20:29;;;;;;;;;;;;;;;20.25;41.29;99320.44;4513781;31;35197;-88
2022/10/15 00:22:56;;;;;;;;;;;;;;;20.27;41.21;99323.03;4514833;31;33629;-87
2022/10/15 00:25:23;;;;;;;;;;;;;;;20.33;41.11;99317.63;4515500;31;34159;-85
2022/10/15 00:27:50;;;;;;;;;;;;;;;20.40;40.98;99314.78;4514926;31;35191;-85
2022/10/15 00:30:18;;;;;;;;;;;;;;;20.18;41.34;99314.44;4514878;31;34157;-86
2022/10/15 00:32:45;;;;;;;;;;;;;;;20.32;41.04;99311.47;4514572;31;33314;-86
2022/10/15 00:35:12;;;;;;;;;;;;;;;20.19;41.35;99317.94;4514499;31;34231;-86
2022/10/15 00:37:40;;;;;;;;;;;;;;;20.25;41.32;99301.16;4514057;31;33927;-86
2022/10/15 00:40:08;;;;;;;;;;;;;;;20.31;41.19;99304.50;4514515;31;34922;-85
2022/10/15 00:42:35;;;;;;;;;;;;;;;20.28;41.13;99299.31;4514645;31;33401;-86
2022/10/15 00:45:03;;;;;;;;;;;;;;;20.22;41.27;99307.34;4514095;31;34680;-85
2022/10/15 00:47:40;;;;;;;;;;;;;;;19.98;41.85;99297.41;4514095;31;35233;-85
2022/10/15 00:50:07;;;;;;;;;;;;;;;20.07;41.85;99300.66;4507330;31;33992;-88
2022/10/15 00:52:45;;;;;;;;;;;;;;;20.20;41.46;99295.13;4514452;31;33898;-88
2022/10/15 00:55:18;;;;;;;;;;;;;;;20.14;41.55;99288.22;4503223;31;34989;-87
2022/10/15 00:57:46;;;;;;;;;;;;;;;20.16;41.51;99282.03;4495773;31;34069;-86
2022/10/15 01:00:16;;;;;;;;;;;;;;;20.08;41.70;99299.78;4499118;31;35073;-87
2022/10/15 01:02:43;;;;;;;;;;;;;;;20.10;41.56;99290.06;4514227;31;33507;-86
2022/10/15 01:05:11;;;;;;;;;;;;;;;20.03;41.82;99287.63;4513859;31;34674;-86
2022/10/15 01:07:39;;;;;;;;;;;;;;;20.16;41.54;99289.06;4503932;31;35194;-87
2022/10/15 01:10:06;;;;;;;;;;;;;;;20.20;41.40;99282.84;4514161;31;34156;-87
2022/10/15 01:12:36;;;;;;;;;;;;;;;20.11;41.71;99278.63;4512791;31;34026;-87
2022/10/15 01:15:04;;;;;;;;;;;;;;;20.21;41.39;99276.66;4513759;31;33776;-87
2022/10/15 01:17:35;;;;;;;;;;;;;;;20.11;41.48;99273.38;4514073;31;35233;-88
2022/10/15 01:20:12;;;;;;;;;;;;;;;19.98;41.84;99282.47;4513617;31;35064;-86
2022/10/15 01:22:45;;;;;;;;;;;;;;;19.84;42.23;99284.56;4513633;31;33343;-86
2022/10/15 01:25:13;;;;;;;;;;;;;;;19.55;42.77;99283.44;4505595;31;34827;-86
2022/10/15 01:27:41;;;;;;;;;;;;;;;19.70;42.58;99279.63;4508508;31;33924;-88
2022/10/15 01:30:21;;;;;;;;;;;;;;;19.85;42.42;99281.91;4506617;31;33312;-86
2022/10/15 01:32:53;;;;;;;;;;;;;;;19.72;42.62;99282.22;4499726;31;32997;-87
2022/10/15 01:35:28;;;;;;;;;;;;;;;19.84;42.45;99277.53;4509276;31;34963;-87
2022/10/15 01:37:55;;;;;;;;;;;;;;;19.93;42.24;99272.06;4510153;31;34486;-89
2022/10/15 01:40:26;;;;;;;;;;;;;;;19.82;42.58;99271.44;4513017;31;33334;-87
2022/10/15 01:42:55;;;;;;;;;;;;;;;19.80;42.72;99275.88;4512307;31;33420;-86
2022/10/15 01:45:49;;;;;;;;;;;;;;;19.56;43.45;99268.50;4501768;31;34057;-90
2022/10/15 01:48:16;;;;;;;;;;;;;;;19.67;43.37;99266.53;4510612;31;34440;-87
2022/10/15 01:50:45;;;;;;;;;;;;;;;19.61;43.49;99274.53;4513691;31;34094;-87
2022/10/15 01:53:14;;;;;;;;;;;;;;;19.80;42.83;99278.50;4511443;31;33116;-86
2022/10/15 01:55:41;;;;;;;;;;;;;;;19.91;42.58;99268.59;4499474;31;33968;-86
2022/10/15 01:58:09;;;;;;;;;;;;;;;19.91;42.44;99263.34;4499861;31;35071;-91
2022/10/15 02:00:36;;;;;;;;;;;;;;;19.86;42.38;99270.47;4507804;31;34184;-86
2022/10/15 02:03:04;;;;;;;;;;;;;;;19.84;42.47;99277.53;4511862;31;33135;-85
2022/10/15 02:05:33;;;;;;;;;;;;;;;19.82;42.62;99278.47;4513658;31;32369;-92
2022/10/15 02:08:09;;;;;;;;;;;;;;;19.80;42.61;99273.25;4512656;31;34348;-87
2022/10/15 02:10:55;;;;;;;;;;;;;;;19.92;42.36;99272.94;4512137;31;34100;-85
2022/10/15 02:13:32;;;;;;;;;;;;;;;19.86;42.38;99274.88;4515455;31;33440;-86
2022/10/15 02:16:26;;;;;;;;;;;;;;;19.91;42.27;99268.59;4516032;31;33558;-86
2022/10/15 02:19:05;;;;;;;;;;;;;;;19.95;41.96;99271.16;4513228;31;33841;-86
2022/10/15 02:21:43;;;;;;;;;;;;;;;19.87;41.90;99273.97;4498950;31;34735;-86
2022/10/15 02:24:13;;;;;;;;;;;;;;;19.96;41.76;99278.16;4498650;31;34096;-88
2022/10/15 02:26:40;;;;;;;;;;;;;;;19.96;41.64;99272.88;4498728;31;35037;-89
2022/10/15 02:29:09;;;;;;;;;;;;;;;19.91;41.61;99273.84;4499504;31;34395;-85
2022/10/15 02:31:36;;;;;;;;;;;;;;;19.88;41.55;99271.28;4514552;31;34562;-88
2022/10/15 02:34:06;;;;;;;;;;;;;;;19.91;41.43;99263.34;4511809;31;34174;-86
2022/10/15 02:36:35;;;;;;;;;;;;;;;19.87;41.34;99259.03;4500007;31;34313;-86
2022/10/15 02:39:03;;;;;;;;;;;;;;;19.82;41.51;99263.56;4514715;31;35497;-85
2022/10/15 02:41:33;;;;;;;;;;;;;;;19.82;41.65;99262.69;4515880;31;33742;-87
2022/10/15 02:44:01;;;;;;;;;;;;;;;19.85;41.85;99255.59;4501506;31;33102;-86
2022/10/15 02:46:28;;;;;;;;;;;;;;;19.76;42.13;99247.03;4516041;31;34643;-85
2022/10/15 02:48:56;;;;;;;;;;;;;;;19.78;41.85;99251.38;4515111;31;34274;-85
2022/10/15 02:51:23;;;;;;;;;;;;;;;19.81;41.81;99253.94;4514089;31;35063;-89
2022/10/15 02:53:51;;;;;;;;;;;;;;;19.81;41.83;99260.94;4501246;31;33519;-89
2022/10/15 02:56:19;;;;;;;;;;;;;;;19.75;42.02;99253.22;4515748;31;34952;-89
2022/10/15 02:58:46;;;;;;;;;;;;;;;19.80;41.81;99252.19;4514604;31;34098;-88
2022/10/15 03:01:13;;;;;;;;;;;;;;;19.75;41.71;99248.81;4514477;31;34951;-87
2022/10/15 03:03:41;;;;;;;;;;;;;;;19.78;41.70;99250.53;4515783;31;33327;-87
2022/10/15 03:06:08;;;;;;;;;;;;;;;19.72;41.85;99240.13;4505271;31;33386;-85
2022/10/15 03:08:35;;;;;;;;;;;;;;;19.80;41.63;99241.66;4515677;31;34760;-85
2022/10/15 03:11:03;;;;;;;;;;;;;;;19.64;42.20;99237.69;4514720;31;34051;-90
2022/10/15 03:13:30;;;;;;;;;;;;;;;19.73;42.15;99232.19;4501060;31;33087;-90
2022/10/15 03:15:57;;;;;;;;;;;;;;;19.65;42.14;99235.00;4514416;31;35187;-86
2022/10/15 03:18:25;;;;;;;;;;;;;;;19.62;42.07;99245.63;4515607;31;34373;-85
2022/10/15 03:20:53;;;;;;;;;;;;;;;19.38;42.52;99246.09;4514243;31;33930;-85
2022/10/15 03:23:21;;;;;;;;;;;;;;;19.58;42.17;99243.03;4512927;31;34115;-87
2022/10/15 03:25:51;;;;;;;;;;;;;;;19.50;42.37;99235.31;4515601;31;34887;-89
2022/10/15 03:28:20;;;;;;;;;;;;;;;19.44;42.42;99235.47;4515360;31;35218;-89
2022/10/15 03:30:48;;;;;;;;;;;;;;;19.47;42.41;99234.50;4502587;31;32412;-86
2022/10/15 03:33:15;;;;;;;;;;;;;;;19.43;42.61;99234.59;4515346;31;33379;-85
2022/10/15 03:35:44;;;;;;;;;;;;;;;19.30;43.04;99238.37;4515170;31;34010;-85
2022/10/15 03:38:12;;;;;;;;;;;;;;;19.47;42.59;99250.28;4513888;31;33649;-87
2022/10/15 03:40:39;;;;;;;;;;;;;;;19.43;42.74;99241.59;4513883;31;33463;-86
2022/10/15 03:43:08;;;;;;;;;;;;;;;19.31;42.92;99252.38;4515504;31;33318;-86
2022/10/15 03:45:36;;;;;;;;;;;;;;;19.12;43.29;99258.03;4514938;31;35141;-88
2022/10/15 03:48:03;;;;;;;;;;;;;;;19.32;42.67;99252.38;4515125;31;34461;-85
2022/10/15 03:50:31;;;;;;;;;;;;;;;19.38;42.45;99246.09;4511592;31;34117;-86
2022/10/15 03:53:01;;;;;;;;;;;;;;;19.39;42.02;99242.56;4501685;31;33541;-88
2022/10/15 03:55:29;;;;;;;;;;;;;;;19.41;41.66;99240.78;4514471;31;34970;-85
2022/10/15 03:57:56;;;;;;;;;;;;;;;19.34;41.69;99240.06;4514632;31;34126;-89
2022/10/15 04:00:24;;;;;;;;;;;;;;;19.37;41.51;99250.50;4502663;31;33899;-85
2022/10/15 04:02:53;;;;;;;;;;;;;;;19.34;41.65;99247.94;4514542;31;33026;-90
2022/10/15 04:05:21;;;;;;;;;;;;;;;19.27;41.69;99243.69;4515065;31;34265;-91
2022/10/15 04:07:48;;;;;;;;;;;;;;;19.18;41.90;99238.66;4514758;31;33748;-90
2022/10/15 04:10:17;;;;;;;;;;;;;;;19.17;41.73;99237.78;4514580;31;34260;-87
2022/10/15 04:12:44;;;;;;;;;;;;;;;19.27;41.61;99227.94;4515457;31;33991;-89
2022/10/15 04:15:13;;;;;;;;;;;;;;;19.19;41.67;99224.59;4514734;31;34041;-88
2022/10/15 04:17:43;;;;;;;;;;;;;;;19.04;42.08;99231.03;4512451;31;33700;-86
2022/10/15 04:20:11;;;;;;;;;;;;;;;19.18;42.03;99233.41;4513523;31;34633;-88
2022/10/15 04:22:41;;;;;;;;;;;;;;;19.13;41.92;99233.50;4514286;31;34046;-86
2022/10/15 04:25:09;;;;;;;;;;;;;;;19.16;41.92;99229.91;4513129;31;35208;-87
2022/10/15 04:27:36;;;;;;;;;;;;;;;19.11;41.96;99231.78;4514392;31;32969;-86
2022/10/15 04:30:04;;;;;;;;;;;;;;;19.04;42.14;99241.56;4514591;31;34233;-86
2022/10/15 04:32:31;;;;;;;;;;;;;;;19.07;42.30;99245.91;4511102;31;33620;-86
2022/10/15 04:34:59;;;;;;;;;;;;;;;19.07;42.49;99245.91;4511853;31;34605;-87
2022/10/15 04:37:31;;;;;;;;;;;;;;;19.10;42.43;99246.69;4514377;31;34810;-86
2022/10/15 04:39:59;;;;;;;;;;;;;;;19.14;42.31;99250.12;4514101;31;34174;-87
2022/10/15 04:42:27;;;;;;;;;;;;;;;19.22;42.34;99249.97;4505127;31;33382;-87
2022/10/15 04:44:55;;;;;;;;;;;;;;;19.33;41.95;99254.09;4507640;31;34232;-86
2022/10/15 04:47:22;;;;;;;;;;;;;;;19.25;41.96;99253.41;4500654;31;34411;-88
2022/10/15 04:49:50;;;;;;;;;;;;;;;19.04;42.24;99244.19;4513589;31;34184;-86
2022/10/15 04:52:21;;;;;;;;;;;;;;;19.08;42.23;99247.63;4514086;31;33149;-86
2022/10/15 04:54:48;;;;;;;;;;;;;;;19.02;42.53;99239.87;4504861;31;33151;-86
2022/10/15 04:57:17;;;;;;;;;;;;;;;19.01;42.62;99246.00;4514376;31;34388;-85
2022/10/15 04:59:44;;;;;;;;;;;;;;;19.05;42.55;99242.41;4514048;31;33961;-85
2022/10/15 05:02:14;;;;;;;;;;;;;;;19.02;42.70;99239.87;4509749;31;34105;-86
2022/10/15 05:04:41;;;;;;;;;;;;;;;18.60;43.90;99247.63;4514115;31;34242;-87
2022/10/15 05:07:09;;;;;;;;;;;;;;;18.57;44.10;99243.31;4513513;31;33792;-87
2022/10/15 05:09:37;;;;;;;;;;;;;;;18.73;43.98;99251.81;4513068;31;34065;-87
2022/10/15 05:12:09;;;;;;;;;;;;;;;18.85;43.96;99255.97;4513883;31;33294;-87
2022/10/15 05:14:37;;;;;;;;;;;;;;;18.98;43.61;99246.97;4514090;31;34337;-85
2022/10/15 05:17:04;;;;;;;;;;;;;;;19.20;42.80;99249.97;4513587;31;34834;-86
2022/10/15 05:19:33;;;;;;;;;;;;;;;19.07;43.14;99257.28;4513405;31;34278;-85
2022/10/15 05:22:01;;;;;;;;;;;;;;;19.16;43.00;99249.19;4512886;31;33176;-85
2022/10/15 05:24:29;;;;;;;;;;;;;;;19.12;43.01;99255.41;4513760;31;34197;-86
2022/10/15 05:26:57;;;;;;;;;;;;;;;19.29;42.67;99257.69;4514304;31;34988;-86
2022/10/15 05:29:26;;;;;;;;;;;;;;;19.22;42.72;99250.84;4513890;31;33606;-85
2022/10/15 05:31:53;;;;;;;;;;;;;;;19.31;42.61;99258.50;4513124;31;33980;-85
2022/10/15 05:34:22;;;;;;;;;;;;;;;19.44;42.29;99260.00;4503914;31;35044;-86
2022/10/15 05:36:49;;;;;;;;;;;;;;;19.30;42.70;99245.41;4508707;31;34097;-89
2022/10/15 05:39:17;;;;;;;;;;;;;;;19.41;42.50;99248.69;4513362;31;35097;-85
2022/10/15 05:41:44;;;;;;;;;;;;;;;19.48;42.41;99241.53;4513482;31;34270;-86
2022/10/15 05:44:12;;;;;;;;;;;;;;;19.41;42.62;99243.41;4513595;31;34056;-87
2022/10/15 05:46:39;;;;;;;;;;;;;;;19.50;42.49;99243.19;4514294;31;33952;-88
2022/10/15 05:49:07;;;;;;;;;;;;;;;19.60;41.94;99242.09;4516119;31;33790;-85
2022/10/15 05:51:38;;;;;;;;;;;;;;;19.62;41.87;99249.97;4515316;31;34213;-87
2022/10/15 05:54:06;;;;;;;;;;;;;;;19.66;41.85;99249.00;4515394;31;35111;-83
2022/10/15 05:56:34;;;;;;;;;;;;;;;19.68;41.79;99252.47;4511135;31;35109;-84
2022/10/15 05:59:02;;;;;;;;;;;;;;;19.37;42.60;99254.91;4512611;31;34182;-87
2022/10/15 06:01:29;;;;;;;;;;;;;;;19.65;42.24;99249.91;4516263;31;34213;-87
2022/10/15 06:03:56;;;;;;;;;;;;;;;19.66;42.29;99249.91;4515898;31;34339;-87
2022/10/15 06:06:25;;;;;;;;;;;;;;;19.54;42.51;99247.50;4515959;31;35027;-87
2022/10/15 06:08:52;;;;;;;;;;;;;;;19.66;42.43;99256.91;4515301;31;33927;-86
2022/10/15 06:11:20;;;;;;;;;;;;;;;19.66;42.62;99270.03;4514533;31;33719;-86
2022/10/15 06:13:47;;;;;;;;;;;;;;;19.86;42.77;99267.84;4514106;31;34440;-87
2022/10/15 06:16:14;;;;;;;;;;;;;;;19.40;43.75;99274.09;4512699;31;33796;-86
2022/10/15 06:18:48;;;;;;;;;;;;;;;19.56;43.50;99279.91;4514061;31;34039;-87
2022/10/15 06:21:16;;;;;;;;;;;;;;;19.69;43.44;99278.75;4512548;31;33180;-86
2022/10/15 06:23:44;;;;;;;;;;;;;;;19.76;43.72;99284.72;4514276;31;33622;-87
2022/10/15 06:26:11;;;;;;;;;;;;;;;19.81;43.54;99285.50;4514298;31;34168;-87
2022/10/15 06:28:40;;;;;;;;;;;;;;;19.76;43.86;99286.50;4515915;31;34629;-87
2022/10/15 06:31:07;;;;;;;;;;;;;;;19.63;44.45;99293.81;4516143;31;33825;-87
2022/10/15 06:33:35;;;;;;;;;;;;;;;19.70;44.23;99290.16;4516054;31;33840;-87
2022/10/15 06:36:03;;;;;;;;;;;;;;;19.57;44.74;99294.75;4515926;31;33888;-87
2022/10/15 06:38:30;;;;;;;;;;;;;;;19.55;45.15;99298.34;4515848;31;33807;-87
2022/10/15 06:40:58;;;;;;;;;;;;;;;19.60;45.45;99288.59;4515707;31;33856;-87
2022/10/15 06:43:25;;;;;;;;;;;;;;;19.01;46.92;99290.69;4515920;31;33727;-86
2022/10/15 06:45:57;;;;;;;;;;;;;;;19.33;46.29;99295.28;4514435;31;34130;-87
2022/10/15 06:48:24;;;;;;;;;;;;;;;18.66;48.22;99302.69;4514705;31;33233;-87
2022/10/15 06:50:51;;;;;;;;;;;;;;;17.98;49.67;99314.28;4515753;31;33536;-87
2022/10/15 06:53:19;;;;;;;;;;;;;;;17.61;50.71;99315.66;4515695;31;34024;-87
2022/10/15 06:55:46;;;;;;;;;;;;;;;18.25;48.83;99312.09;4516684;31;35257;-87
2022/10/15 06:58:13;;;;;;;;;;;;;;;18.90;47.05;99310.16;4514817;31;34398;-87
2022/10/15 07:00:40;;;;;;;;;;;;;;;18.62;48.19;99325.50;4515839;31;34346;-87
2022/10/15 07:03:07;;;;;;;;;;;;;;;18.57;47.78;99323.84;4515663;31;34029;-87
2022/10/15 07:05:35;;;;;;;;;;;;;;;18.16;48.83;99328.00;4515660;31;34284;-87
2022/10/15 07:08:02;;;;;;;;;;;;;;;18.62;47.47;99324.63;4515593;31;34990;-87
2022/10/15 07:10:29;;;;;;;;;;;;;;;18.13;48.67;99334.16;4515706;31;32808;-86
2022/10/15 07:13:00;;;;;;;;;;;;;;;18.93;47.23;99320.59;4514348;31;34892;-87
2022/10/15 07:15:27;;;;;;;;;;;;;;;18.39;48.68;99323.25;4515481;31;35266;-87
2022/10/15 07:18:00;;;;;;;;;;;;;;;18.21;49.38;99327.03;4515336;31;34830;-86
2022/10/15 07:20:28;;;;;;;;;;;;;;;18.04;49.90;99317.72;4514509;31;34301;-87
2022/10/15 07:22:57;;;;;;;;;;;;;;;18.75;47.98;99318.28;4515395;31;34964;-87
2022/10/15 07:25:28;;;;;;;;;;;;;;;18.75;48.38;99323.53;4515560;31;34133;-87
2022/10/15 07:27:55;;;;;;;;;;;;;;;18.96;47.80;99322.28;4515558;31;34218;-86
2022/10/15 07:30:26;;;;;;;;;;;;;;;18.39;49.13;99317.16;4514267;31;33119;-87
2022/10/15 07:32:56;;;;;;;;;;;;;;;18.84;48.10;99312.03;4514062;31;34202;-86
2022/10/15 07:35:24;;;;;;;;;;;;;;;17.86;50.96;99308.34;4515326;31;34492;-87
2022/10/15 07:37:51;;;;;;;;;;;;;;;18.52;48.95;99305.53;4501533;31;33748;-88
2022/10/15 07:40:19;;;;;;;;;;;;;;;18.61;48.69;99310.62;4515603;31;33516;-86
2022/10/15 07:42:53;;;;;;;;;;;;;;;18.36;49.29;99310.19;4513908;31;34113;-87
2022/10/15 07:45:21;;;;;;;;;;;;;;;18.63;49.15;99313.22;4514316;31;34284;-86
2022/10/15 07:47:48;;;;;;;;;;;;;;;18.13;49.93;99320.19;4515116;31;34873;-87
2022/10/15 07:50:15;;;;;;;;;;;;;;;17.60;51.57;99317.41;4515367;31;34104;-86
2022/10/15 07:52:43;;;;;;;;;;;;;;;16.99;53.00;99321.63;4515394;31;34034;-86
2022/10/15 07:55:11;;;;;;;;;;;;;;;17.85;51.30;99323.22;4514253;31;34278;-87
2022/10/15 07:57:38;;;;;;;;;;;;;;;18.65;49.43;99316.72;4515178;31;34938;-86
2022/10/15 08:00:05;;;;;;;;;;;;;;;18.90;48.40;99310.16;4515259;31;33960;-90
2022/10/15 08:02:38;;;;;;;;;;;;;;;18.38;49.62;99324.16;4515174;31;34027;-88
2022/10/15 08:05:06;;;;;;;;;;;;;;;18.67;48.78;99330.66;4515043;31;34529;-86
2022/10/15 08:07:33;;;;;;;;;;;;;;;18.93;47.95;99323.22;4515381;31;34830;-86
2022/10/15 08:10:05;;;;;;;;;;;;;;;19.05;48.07;99326.50;4514637;31;33106;-87
2022/10/15 08:12:32;;;;;;;;;;;;;;;19.39;46.83;99340.72;4515356;31;34837;-87
2022/10/15 08:14:59;;;;;;;;;;;;;;;19.34;47.97;99341.72;4515224;31;35260;-86
2022/10/15 08:17:26;;;;;;;;;;;;;;;19.42;46.55;99334.53;4514877;31;34804;-87
2022/10/15 08:19:54;;;;;;;;;;;;;;;19.58;46.37;99335.06;4513985;31;34150;-89
2022/10/15 08:22:21;;;;;;;;;;;;;;;18.43;49.18;99343.31;4515107;31;34923;-87
2022/10/15 08:24:52;;;;;;;;;;;;;;;19.87;45.78;99335.34;4515300;31;34593;-87
2022/10/15 08:27:22;;;;;;;;;;;;;;;19.65;46.04;99340.19;4515208;31;34594;-86
2022/10/15 08:29:50;;;;;;;;;;;;;;;19.95;45.49;99336.94;4515114;31;34156;-87
2022/10/15 08:32:17;;;;;;;;;;;;;;;19.22;47.32;99331.44;4514855;31;34045;-87
2022/10/15 08:34:44;;;;;;;;;;;;;;;19.28;48.03;99333.94;4515096;31;35182;-87
2022/10/15 08:37:11;;;;;;;;;;;;;;;20.11;45.98;99344.44;4515056;31;35102;-87
2022/10/15 08:39:43;;;;;;;;;;;;;;;20.29;45.47;99343.16;4515067;31;34430;-87
2022/10/15 08:42:14;;;;;;;;;;;;;;;19.70;47.12;99345.37;4514877;31;34314;-86
2022/10/15 08:44:45;;;;;;;;;;;;;;;20.21;44.62;99339.84;4487809;31;863857;-86
2022/10/15 08:47:21;;;;;;;;;;;;;;;19.29;46.27;99349.69;4513604;31;34072;-87
2022/10/15 08:50:09;;;;;;;;;;;;;;;19.13;45.82;99343.88;4515117;31;33297;-87
2022/10/15 08:52:42;;;;;;;;;;;;;;;20.21;44.55;99339.84;4504545;31;33758;-87
2022/10/15 08:55:16;;;;;;;;;;;;;;;20.82;44.11;99343.59;4515019;31;34903;-87
2022/10/15 08:57:56;;;;;;;;;;;;;;;21.01;43.15;99328.16;4513634;31;33820;-87
2022/10/15 09:00:24;;;;;;;;;;;;;;;20.12;44.80;99346.19;4513445;31;33054;-87
2022/10/15 09:02:51;;;;;;;;;;;;;;;20.44;44.22;99341.06;4514719;31;35106;-86
2022/10/15 09:05:21;;;;;;;;;;;;;;;20.01;45.36;99342.09;4514784;31;35242;-86
2022/10/15 09:08:11;;;;;;;;;;;;;;;20.55;44.54;99333.78;4514750;31;35085;-87
2022/10/15 09:10:42;;;;;;;;;;;;;;;20.77;43.30;99328.84;4485214;31;33323;-86
2022/10/15 09:13:13;;;;;;;;;;;;;;;19.79;46.41;99337.28;4514874;31;33905;-87
2022/10/15 09:16:03;;;;;;;;;;;;;;;20.97;43.34;99344.97;4513273;31;34214;-87
2022/10/15 09:18:31;;;;;;;;;;;;;;;21.26;42.46;99346.81;4503113;31;34783;-86
2022/10/15 09:20:59;;;;;;;;;;;;;;;21.24;42.28;99350.41;4499658;31;33084;-86
2022/10/15 09:23:28;;;;;;;;;;;;;;;21.54;42.37;99348.72;4501710;31;33963;-86
2022/10/15 09:26:28;;;;;;;;;;;;;;;21.06;42.60;99351.75;4503638;31;34380;-87
2022/10/15 09:28:55;;;;;;;;;;;;;;;21.87;41.23;99360.03;4479339;31;34980;-85
2022/10/15 09:31:27;;;;;;;;;;;;;;;21.45;42.61;99360.41;4514290;31;33383;-86
2022/10/15 09:34:00;;;;;;;;;;;;;;;20.36;44.35;99365.81;4503430;31;34888;-84
2022/10/15 09:36:30;;;;;;;;;;;;;;;19.76;45.41;99365.41;4508753;31;32601;-84
2022/10/15 09:39:00;;;;;;;;;;;;;;;20.78;43.71;99356.91;4514153;31;34025;-83
2022/10/15 09:41:35;;;;;;;;;;;;;;;20.50;44.40;99362.00;4514235;31;33237;-83
2022/10/15 09:44:02;;;;;;;;;;;;;;;20.24;44.95;99359.97;4513919;31;33993;-84
2022/10/15 09:46:44;;;;;;;;;;;;;;;19.87;45.29;99356.41;4512942;31;34214;-83
2022/10/15 09:49:17;;;;;;;;;;;;;;;21.04;43.58;99345.69;4512618;31;34173;-85
2022/10/15 09:51:52;;;;;;;;;;;;;;;20.69;43.53;99358.00;4506638;31;34183;-85
2022/10/15 09:54:25;;;;;;;;;;;;;;;20.08;44.97;99356.84;4513855;31;34184;-86
2022/10/15 09:56:53;;;;;;;;;;;;;;;20.63;43.71;99347.63;4499585;31;35211;-85
2022/10/15 09:59:21;;;;;;;;;;;;;;;20.96;43.08;99340.63;4512923;31;34710;-85
2022/10/15 10:01:55;;;;;;;;;;;;;;;20.57;43.68;99346.03;4512357;31;33010;-84
2022/10/15 10:04:25;;;;;;;;;;;;;;;21.20;43.29;99344.34;4513985;31;33914;-84
2022/10/15 10:06:53;;;;;;;;;;;;;;;21.18;42.74;99350.59;4513824;31;35835;-84
2022/10/15 10:09:33;;;;;;;;;;;;;;;20.60;43.53;99347.69;4507933;31;33637;-83
2022/10/15 10:12:01;;;;;;;;;;;;;;;20.95;43.12;99348.53;4513757;31;33122;-84
2022/10/15 10:14:30;;;;;;;;;;;;;;;20.89;43.24;99344.31;4512493;31;33827;-83
2022/10/15 10:17:03;;;;;;;;;;;;;;;21.27;42.28;99330.09;4512543;31;34155;-82
2022/10/15 10:19:31;;;;;;;;;;;;;;;21.40;42.77;99335.03;4512305;31;34387;-86
2022/10/15 10:22:18;;;;;;;;;;;;;;;20.24;43.66;99342.41;4500761;31;33159;-85
2022/10/15 10:24:46;;;;;;;;;;;;;;;21.52;41.54;99342.62;4509891;31;34280;-86
2022/10/15 10:27:18;;;;;;;;;;;;;;;22.07;40.54;99328.59;4508108;31;34225;-86
2022/10/15 10:29:53;;;;;;;;;;;;;;;21.94;40.82;99327.28;4506960;31;34552;-87
2022/10/15 10:32:30;;;;;;;;;;;;;;;21.89;40.47;99323.91;4512516;31;33018;-84
2022/10/15 10:34:58;;;;;;;;;;;;;;;21.54;41.81;99327.59;4506467;31;34008;-83
2022/10/15 10:37:25;;;;;;;;;;;;;;;22.05;40.44;99322.53;4514242;31;33771;-83
2022/10/15 10:39:54;;;;;;;;;;;;;;;21.75;40.94;99319.06;4514103;31;34052;-84
2022/10/15 10:42:27;;;;;;;;;;;;;;;22.40;40.39;99311.78;4513440;31;33730;-82
2022/10/15 10:44:54;;;;;;;;;;;;;;;22.17;40.28;99307.25;4500556;31;35079;-82
2022/10/15 10:47:25;;;;;;;;;;;;;;;21.48;41.58;99325.13;4514970;31;35332;-82
2022/10/15 10:49:55;;;;;;;;;;;;;;;22.01;40.44;99307.69;4514992;31;34914;-81
2022/10/15 10:52:32;;;;;;;;;;;;;;;21.89;40.19;99308.06;4514182;31;33090;-82
2022/10/15 10:55:16;;;;;;;;;;;;;;;22.29;39.04;99297.13;4513103;31;34618;-83
2022/10/15 10:57:43;;;;;;;;;;;;;;;21.99;39.89;99314.78;4500978;31;34176;-83
2022/10/15 11:00:12;;;;;;;;;;;;;;;22.04;38.99;99306.72;4515002;31;33882;-83
2022/10/15 11:02:42;;;;;;;;;;;;;;;22.91;37.64;99305.59;4513964;31;33374;-84
2022/10/15 11:05:13;;;;;;;;;;;;;;;22.77;37.96;99301.69;4514432;31;33792;-84
2022/10/15 11:07:43;;;;;;;;;;;;;;;23.05;36.50;99303.38;4513789;31;34409;-86
2022/10/15 11:10:34;;;;;;;;;;;;;;;22.55;37.63;99298.91;4514809;31;34377;-85
2022/10/15 11:13:04;;;;;;;;;;;;;;;22.47;38.64;99300.09;4502154;31;33737;-85
2022/10/15 11:15:36;;;;;;;;;;;;;;;22.97;37.86;99290.44;4514801;31;34360;-86
2022/10/15 11:18:03;;;;;;;;;;;;;;;22.55;37.69;99292.75;4508154;31;34031;-87
2022/10/15 11:20:33;;;;;;;;;;;;;;;22.43;38.45;99287.91;4514803;31;34724;-86
2022/10/15 11:23:26;;;;;;;;;;;;;;;23.16;37.77;99292.41;4498513;31;33213;-86
2022/10/15 11:25:58;;;;;;;;;;;;;;;22.40;39.13;99277.44;4513830;31;34033;-86
2022/10/15 11:28:25;;;;;;;;;;;;;;;22.36;38.61;99270.53;4513911;31;35322;-86
2022/10/15 11:31:02;;;;;;;;;;;;;;;22.52;38.75;99259.38;4515067;31;34287;-87
2022/10/15 11:33:29;;;;;;;;;;;;;;;23.04;37.74;99259.34;4498108;31;34165;-88
2022/10/15 11:36:15;;;;;;;;;;;;;;;22.93;37.72;99265.00;4499409;31;34031;-87
2022/10/15 11:39:01;;;;;;;;;;;;;;;23.42;36.88;99249.13;4499101;31;34169;-87
2022/10/15 11:41:49;;;;;;;;;;;;;;;23.40;36.21;99250.94;4507093;31;34999;-87
2022/10/15 11:44:23;;;;;;;;;;;;;;;23.31;36.91;99246.87;4514396;31;33263;-87
2022/10/15 11:46:58;;;;;;;;;;;;;;;23.18;37.41;99242.94;4509382;31;34081;-88
2022/10/15 11:49:32;;;;;;;;;;;;;;;23.31;36.81;99242.44;4515349;31;34501;-87
2022/10/15 11:52:03;;;;;;;;;;;;;;;23.17;37.43;99244.72;4514922;31;34255;-86
2022/10/15 11:54:31;;;;;;;;;;;;;;;23.15;37.10;99243.09;4514547;31;33137;-87
2022/10/15 11:57:00;;;;;;;;;;;;;;;23.08;36.33;99239.81;4515124;31;34239;-87
2022/10/15 11:59:39;;;;;;;;;;;;;;;23.44;36.29;99250.75;4515267;31;34474;-88
2022/10/15 12:02:14;;;;;;;;;;;;;;;23.73;35.74;99244.38;4513738;31;35095;-86
2022/10/15 12:04:58;;;;;;;;;;;;;;;23.75;36.39;99253.13;4510216;31;33703;-86
2022/10/15 12:07:31;;;;;;;;;;;;;;;23.22;36.83;99248.09;4498721;31;35048;-86
2022/10/15 12:10:19;;;;;;;;;;;;;;;23.07;36.93;99243.38;4499143;31;34420;-87
2022/10/15 12:12:48;;;;;;;;;;;;;;;23.15;36.77;99236.00;4510461;31;34756;-88
2022/10/15 12:15:20;;;;;;;;;;;;;;;22.96;37.53;99234.97;4512620;31;33462;-87
2022/10/15 12:17:47;;;;;;;;;;;;;;;22.11;38.74;99234.31;4513751;31;33982;-86
2022/10/15 12:20:15;;;;;;;;;;;;;;;22.99;37.49;99235.69;4512503;31;35030;-88
2022/10/15 12:22:45;;;;;;;;;;;;;;;23.23;36.97;99226.00;4502705;31;34152;-87
2022/10/15 12:25:31;;;;;;;;;;;;;;;23.44;36.59;99231.37;4503335;31;33235;-87
2022/10/15 12:27:59;;;;;;;;;;;;;;;23.26;36.65;99222.34;4510809;31;35098;-88
2022/10/15 12:30:27;;;;;;;;;;;;;;;24.07;35.47;99224.47;4507615;31;34266;-87
2022/10/15 12:32:54;;;;;;;;;;;;;;;23.43;36.07;99227.00;4505013;31;33669;-87
2022/10/15 12:35:41;;;;;;;;;;;;;;;23.92;35.14;99223.31;4510917;31;34102;-87
2022/10/15 12:38:09;;;;;;;;;;;;;;;24.35;34.30;99225.94;4513898;31;34500;-85
2022/10/15 12:40:37;;;;;;;;;;;;;;;24.50;34.37;99225.31;4507225;31;33270;-86
2022/10/15 12:43:16;;;;;;;;;;;;;;;23.41;35.73;99226.19;4509450;31;35081;-85
2022/10/15 12:45:53;;;;;;;;;;;;;;;24.19;34.83;99221.31;4510891;31;32817;-87
2022/10/15 12:48:22;;;;;;;;;;;;;;;23.96;34.02;99211.66;4498970;31;35019;-87
2022/10/15 12:50:50;;;;;;;;;;;;;;;23.91;33.77;99211.00;4505516;31;34610;-88
2022/10/15 12:53:23;;;;;;;;;;;;;;;23.91;33.88;99210.16;4506428;31;33198;-90
2022/10/15 12:56:09;;;;;;;;;;;;;;;23.34;34.77;99216.81;4514766;31;33848;-88
2022/10/15 12:58:43;;;;;;;;;;;;;;;23.78;34.67;99209.75;4513649;31;35170;-88
2022/10/15 13:01:13;;;;;;;;;;;;;;;23.83;34.55;99213.09;4513466;31;34364;-88
2022/10/15 13:03:50;;;;;;;;;;;;;;;24.00;34.46;99207.97;4514729;31;33909;-88